N828WW KPHX-KMKL
Flight info
| Callsign | N828WW |
|---|---|
| Flight time | N/A |
| Altitude | 45000 |
| Route | BROAK1 MAXXO CNX |
| Aircraft | C700/M-SBDGHM1RWXY/LB2 |
Departure
| Time | N/A |
|---|---|
| Airport | Phoenix Sky Harbor International Airport (KPHX) |
Arrival
| Time | 2026-05-08 04:34 |
|---|---|
| Airport | McKellar-Sipes Regional Airport (KMKL) |
| Time | Latitude | Longitude | Altitude | Speed | Heading |
|---|---|---|---|---|---|
| 2026-05-08 04:34 | 35.60187 | -88.91959 | 425 ft | 0 kts | 0° |
| 2026-05-08 04:43 | 35.60193 | -88.91964 | 421 ft | 4 kts | 297° |
| 2026-05-08 04:43 | 35.60170 | -88.91948 | 418 ft | 11 kts | 92° |
| 2026-05-08 04:44 | 35.60126 | -88.91857 | 419 ft | 17 kts | 179° |
| 2026-05-08 04:44 | 35.59993 | -88.91865 | 421 ft | 21 kts | 186° |
| 2026-05-08 04:44 | 35.59878 | -88.91770 | 421 ft | 24 kts | 112° |
| 2026-05-08 04:44 | 35.59800 | -88.91713 | 420 ft | 16 kts | 202° |
| 2026-05-08 04:45 | 35.59673 | -88.91776 | 424 ft | 23 kts | 202° |
| 2026-05-08 04:45 | 35.59519 | -88.91852 | 426 ft | 25 kts | 201° |
| 2026-05-08 04:45 | 35.59354 | -88.91935 | 428 ft | 27 kts | 204° |
| 2026-05-08 04:45 | 35.59180 | -88.92023 | 423 ft | 28 kts | 203° |
| 2026-05-08 04:46 | 35.59101 | -88.92056 | 431 ft | 0 kts | 164° |
| 2026-05-08 04:47 | 35.59095 | -88.92054 | 431 ft | 6 kts | 157° |
| 2026-05-08 04:47 | 35.59084 | -88.91952 | 426 ft | 21 kts | 33° |
| 2026-05-08 04:47 | 35.59248 | -88.91873 | 421 ft | 44 kts | 22° |
| 2026-05-08 04:47 | 35.59788 | -88.91600 | 416 ft | 127 kts | 22° |
| 2026-05-08 04:48 | 35.60747 | -88.91147 | 1105 ft | 137 kts | 19° |
| 2026-05-08 04:48 | 35.61684 | -88.90739 | 2067 ft | 168 kts | 21° |
| 2026-05-08 04:48 | 35.62739 | -88.89907 | 3032 ft | 194 kts | 52° |
| 2026-05-08 04:48 | 35.63176 | -88.88288 | 4248 ft | 212 kts | 90° |
| 2026-05-08 04:49 | 35.62708 | -88.86540 | 5568 ft | 224 kts | 125° |
| 2026-05-08 04:49 | 35.61639 | -88.85117 | 6923 ft | 230 kts | 134° |
| 2026-05-08 04:49 | 35.60594 | -88.83603 | 8205 ft | 235 kts | 128° |
| 2026-05-08 04:49 | 35.59577 | -88.82005 | 9482 ft | 239 kts | 130° |
| 2026-05-08 04:50 | 35.58491 | -88.80432 | 10656 ft | 243 kts | 134° |
| 2026-05-08 04:50 | 35.57378 | -88.78858 | 11783 ft | 245 kts | 135° |
| 2026-05-08 04:50 | 35.56262 | -88.77268 | 12930 ft | 246 kts | 136° |
| 2026-05-08 04:50 | 35.55162 | -88.75663 | 14057 ft | 246 kts | 136° |
| 2026-05-08 04:51 | 35.54073 | -88.74041 | 15046 ft | 246 kts | 138° |
| 2026-05-08 04:51 | 35.52954 | -88.72455 | 16053 ft | 246 kts | 139° |
| 2026-05-08 04:51 | 35.51836 | -88.70861 | 17060 ft | 246 kts | 139° |
| 2026-05-08 04:51 | 35.50722 | -88.69265 | 18058 ft | 247 kts | 139° |
| 2026-05-08 04:52 | 35.49596 | -88.67644 | 18901 ft | 252 kts | 139° |
| 2026-05-08 04:52 | 35.48451 | -88.65995 | 19669 ft | 256 kts | 140° |
| 2026-05-08 04:52 | 35.47286 | -88.64318 | 20488 ft | 260 kts | 140° |
| 2026-05-08 04:52 | 35.46106 | -88.62619 | 21313 ft | 264 kts | 140° |
| 2026-05-08 04:53 | 35.44906 | -88.60897 | 22150 ft | 267 kts | 141° |
| 2026-05-08 04:53 | 35.43691 | -88.59150 | 22998 ft | 272 kts | 141° |
| 2026-05-08 04:53 | 35.42459 | -88.57369 | 23826 ft | 276 kts | 141° |
| 2026-05-08 04:53 | 35.41197 | -88.55564 | 24499 ft | 282 kts | 142° |
| 2026-05-08 04:54 | 35.39903 | -88.53722 | 25166 ft | 289 kts | 143° |
| 2026-05-08 04:54 | 35.38600 | -88.51856 | 25833 ft | 295 kts | 144° |
| 2026-05-08 04:54 | 35.37251 | -88.49922 | 26507 ft | 302 kts | 144° |
| 2026-05-08 04:54 | 35.35872 | -88.47947 | 27171 ft | 308 kts | 146° |
| 2026-05-08 04:55 | 35.34462 | -88.45938 | 27817 ft | 315 kts | 147° |
| 2026-05-08 04:55 | 35.33002 | -88.43892 | 28323 ft | 327 kts | 147° |
| 2026-05-08 04:55 | 35.31487 | -88.41697 | 28747 ft | 347 kts | 144° |
| 2026-05-08 04:55 | 35.29906 | -88.39382 | 29178 ft | 362 kts | 146° |
| 2026-05-08 04:56 | 35.28217 | -88.37034 | 29718 ft | 369 kts | 147° |
| 2026-05-08 04:56 | 35.26521 | -88.34640 | 30495 ft | 376 kts | 146° |
| 2026-05-08 04:56 | 35.25399 | -88.33012 | 30927 ft | 378 kts | 146° |
| 2026-05-08 04:56 | 35.23707 | -88.30549 | 31660 ft | 378 kts | 147° |
| 2026-05-08 04:57 | 35.21996 | -88.28115 | 32327 ft | 377 kts | 148° |
| 2026-05-08 04:57 | 35.20273 | -88.25688 | 33043 ft | 378 kts | 148° |
| 2026-05-08 04:57 | 35.18554 | -88.23248 | 33747 ft | 379 kts | 149° |
| 2026-05-08 04:57 | 35.16835 | -88.20796 | 34371 ft | 381 kts | 149° |
| 2026-05-08 04:58 | 35.15095 | -88.18328 | 34872 ft | 385 kts | 149° |
| 2026-05-08 04:58 | 35.13328 | -88.15831 | 35341 ft | 390 kts | 148° |
| 2026-05-08 04:58 | 35.11546 | -88.13304 | 35808 ft | 395 kts | 148° |
| 2026-05-08 04:58 | 35.09742 | -88.10743 | 36267 ft | 400 kts | 148° |
| 2026-05-08 04:59 | 35.07916 | -88.08158 | 36720 ft | 404 kts | 147° |
| 2026-05-08 04:59 | 35.06065 | -88.05545 | 37138 ft | 409 kts | 147° |
| 2026-05-08 04:59 | 35.04194 | -88.02899 | 37578 ft | 414 kts | 147° |
| 2026-05-08 04:59 | 35.02300 | -88.00220 | 37994 ft | 418 kts | 147° |
| 2026-05-08 05:00 | 35.00389 | -87.97524 | 38416 ft | 422 kts | 146° |
| 2026-05-08 05:00 | 34.98456 | -87.94800 | 38819 ft | 427 kts | 146° |
| 2026-05-08 05:00 | 34.96509 | -87.92054 | 39133 ft | 429 kts | 146° |
| 2026-05-08 05:00 | 34.94576 | -87.89329 | 39503 ft | 432 kts | 145° |
| 2026-05-08 05:01 | 34.92577 | -87.86517 | 39877 ft | 434 kts | 145° |
| 2026-05-08 05:01 | 34.90617 | -87.83765 | 40227 ft | 436 kts | 145° |
| 2026-05-08 05:01 | 34.88624 | -87.80966 | 40571 ft | 439 kts | 145° |
| 2026-05-08 05:01 | 34.86619 | -87.78152 | 40921 ft | 441 kts | 144° |
| 2026-05-08 05:02 | 34.84603 | -87.75324 | 41262 ft | 443 kts | 144° |
| 2026-05-08 05:02 | 34.82577 | -87.72486 | 41591 ft | 446 kts | 144° |
| 2026-05-08 05:02 | 34.80534 | -87.69627 | 41902 ft | 448 kts | 144° |
| 2026-05-08 05:02 | 34.78485 | -87.66761 | 42221 ft | 450 kts | 144° |
| 2026-05-08 05:03 | 34.76425 | -87.63879 | 42548 ft | 452 kts | 144° |
| 2026-05-08 05:03 | 34.74353 | -87.60987 | 42864 ft | 454 kts | 144° |
| 2026-05-08 05:03 | 34.72272 | -87.58085 | 43164 ft | 456 kts | 144° |
| 2026-05-08 05:03 | 34.70183 | -87.55173 | 43424 ft | 458 kts | 143° |
| 2026-05-08 05:04 | 34.68085 | -87.52249 | 43738 ft | 459 kts | 143° |
| 2026-05-08 05:04 | 34.65984 | -87.49323 | 44007 ft | 461 kts | 143° |
| 2026-05-08 05:04 | 34.63867 | -87.46380 | 44291 ft | 463 kts | 143° |
| 2026-05-08 05:04 | 34.61734 | -87.43458 | 44559 ft | 460 kts | 147° |
| 2026-05-08 05:05 | 34.59445 | -87.40782 | 44795 ft | 455 kts | 150° |
| 2026-05-08 05:05 | 34.57112 | -87.38184 | 45003 ft | 456 kts | 151° |
| 2026-05-08 05:05 | 34.52395 | -87.32847 | 45077 ft | 471 kts | 149° |
| 2026-05-08 05:06 | 34.47579 | -87.27373 | 45075 ft | 484 kts | 149° |
| 2026-05-08 05:06 | 34.42588 | -87.21740 | 45071 ft | 496 kts | 148° |
| 2026-05-08 05:07 | 34.37489 | -87.15972 | 45093 ft | 507 kts | 148° |
| 2026-05-08 05:07 | 34.34947 | -87.13093 | 45094 ft | 490 kts | 148° |
| 2026-05-08 05:07 | 34.32526 | -87.10332 | 45081 ft | 467 kts | 149° |
| 2026-05-08 05:08 | 34.30205 | -87.07710 | 45075 ft | 445 kts | 151° |
| 2026-05-08 05:08 | 34.27980 | -87.05229 | 45070 ft | 430 kts | 149° |
| 2026-05-08 05:08 | 34.23510 | -87.00283 | 45089 ft | 444 kts | 151° |
| 2026-05-08 05:09 | 34.18910 | -86.95079 | 45097 ft | 461 kts | 149° |
| 2026-05-08 05:09 | 34.14142 | -86.89749 | 45106 ft | 473 kts | 149° |
| 2026-05-08 05:10 | 34.06741 | -86.81468 | 45102 ft | 493 kts | 149° |
| 2026-05-08 05:11 | 34.01645 | -86.75794 | 45087 ft | 504 kts | 148° |
| 2026-05-08 05:11 | 33.96486 | -86.70042 | 45082 ft | 512 kts | 148° |
| 2026-05-08 05:12 | 33.91213 | -86.64189 | 45075 ft | 518 kts | 148° |
| 2026-05-08 05:12 | 33.85917 | -86.58299 | 45074 ft | 519 kts | 148° |
| 2026-05-08 05:13 | 33.80599 | -86.52415 | 45072 ft | 520 kts | 148° |
| 2026-05-08 05:13 | 33.75269 | -86.46514 | 45072 ft | 521 kts | 148° |
| 2026-05-08 05:14 | 33.69930 | -86.40633 | 45073 ft | 521 kts | 148° |
| 2026-05-08 05:14 | 33.64592 | -86.34741 | 45072 ft | 521 kts | 148° |
| 2026-05-08 05:15 | 33.59256 | -86.28878 | 45052 ft | 519 kts | 148° |
| 2026-05-08 05:15 | 33.53930 | -86.23047 | 45087 ft | 518 kts | 148° |
| 2026-05-08 05:16 | 33.48610 | -86.17204 | 45085 ft | 519 kts | 148° |
| 2026-05-08 05:16 | 33.43319 | -86.11413 | 45045 ft | 519 kts | 148° |
| 2026-05-08 05:17 | 33.37982 | -86.05587 | 45043 ft | 519 kts | 148° |
| 2026-05-08 05:17 | 33.32607 | -85.99724 | 45042 ft | 519 kts | 148° |
| 2026-05-08 05:18 | 33.27299 | -85.93950 | 45040 ft | 519 kts | 148° |
| 2026-05-08 05:18 | 33.21949 | -85.88136 | 45040 ft | 519 kts | 148° |
| 2026-05-08 05:19 | 33.16605 | -85.82340 | 45039 ft | 519 kts | 148° |
| 2026-05-08 05:19 | 33.11256 | -85.76550 | 45040 ft | 519 kts | 148° |
| 2026-05-08 05:20 | 33.05907 | -85.70767 | 45031 ft | 518 kts | 148° |
| 2026-05-08 05:20 | 33.00557 | -85.64996 | 45031 ft | 519 kts | 148° |
| 2026-05-08 05:21 | 32.95201 | -85.59224 | 45028 ft | 519 kts | 148° |
| 2026-05-08 05:21 | 32.89842 | -85.53465 | 45036 ft | 519 kts | 148° |
| 2026-05-08 05:22 | 32.84484 | -85.47712 | 45047 ft | 519 kts | 148° |
| 2026-05-08 05:22 | 32.79126 | -85.41970 | 45055 ft | 518 kts | 148° |
| 2026-05-08 05:23 | 32.73769 | -85.36240 | 45058 ft | 518 kts | 148° |
| 2026-05-08 05:23 | 32.68440 | -85.30548 | 45023 ft | 519 kts | 148° |
| 2026-05-08 05:24 | 32.63070 | -85.24823 | 45021 ft | 519 kts | 148° |
| 2026-05-08 05:24 | 32.57699 | -85.19104 | 45031 ft | 519 kts | 148° |
| 2026-05-08 05:25 | 32.52331 | -85.13398 | 44985 ft | 514 kts | 147° |
| 2026-05-08 05:25 | 32.47228 | -85.07550 | 45030 ft | 509 kts | 143° |
| 2026-05-08 05:26 | 32.42341 | -85.01564 | 45033 ft | 501 kts | 143° |
| 2026-05-08 05:26 | 32.37467 | -84.95719 | 45031 ft | 496 kts | 143° |
| 2026-05-08 05:27 | 32.32655 | -84.89887 | 45011 ft | 493 kts | 143° |
| 2026-05-08 05:27 | 32.27862 | -84.84129 | 45005 ft | 490 kts | 144° |
| 2026-05-08 05:28 | 32.23102 | -84.78392 | 44987 ft | 487 kts | 143° |
| 2026-05-08 05:28 | 32.18354 | -84.72696 | 45004 ft | 490 kts | 144° |
| 2026-05-08 05:29 | 32.13535 | -84.66930 | 45018 ft | 502 kts | 143° |
| 2026-05-08 05:29 | 32.08549 | -84.60964 | 45020 ft | 512 kts | 143° |
| 2026-05-08 05:30 | 32.03563 | -84.54991 | 45018 ft | 516 kts | 143° |
| 2026-05-08 05:30 | 31.98496 | -84.48944 | 45017 ft | 520 kts | 143° |
| 2026-05-08 05:31 | 31.93417 | -84.42893 | 45003 ft | 517 kts | 142° |
| 2026-05-08 05:31 | 31.88355 | -84.36905 | 45016 ft | 516 kts | 142° |
| 2026-05-08 05:32 | 31.83340 | -84.30878 | 45019 ft | 514 kts | 143° |
| 2026-05-08 05:32 | 31.78263 | -84.24940 | 45012 ft | 515 kts | 142° |
| 2026-05-08 05:33 | 31.73237 | -84.18936 | 45012 ft | 514 kts | 143° |
| 2026-05-08 05:33 | 31.68177 | -84.13001 | 45017 ft | 514 kts | 143° |
| 2026-05-08 05:34 | 31.63139 | -84.07033 | 45032 ft | 514 kts | 143° |
| 2026-05-08 05:34 | 31.58093 | -84.01100 | 45030 ft | 513 kts | 143° |
| 2026-05-08 05:35 | 31.53032 | -83.95167 | 44839 ft | 518 kts | 143° |
| 2026-05-08 05:35 | 31.50475 | -83.92163 | 44377 ft | 521 kts | 143° |
| 2026-05-08 05:35 | 31.47958 | -83.89203 | 43886 ft | 519 kts | 142° |
| 2026-05-08 05:35 | 31.45404 | -83.86209 | 43396 ft | 518 kts | 143° |
| 2026-05-08 05:36 | 31.42855 | -83.83230 | 42931 ft | 518 kts | 143° |
| 2026-05-08 05:36 | 31.40304 | -83.80249 | 42475 ft | 518 kts | 143° |
| 2026-05-08 05:36 | 31.37749 | -83.77271 | 42030 ft | 518 kts | 143° |
| 2026-05-08 05:36 | 31.35197 | -83.74287 | 41552 ft | 519 kts | 142° |
| 2026-05-08 05:37 | 31.32644 | -83.71293 | 41126 ft | 520 kts | 142° |
| 2026-05-08 05:37 | 31.30085 | -83.68305 | 40707 ft | 520 kts | 143° |
| 2026-05-08 05:37 | 31.27521 | -83.65324 | 40304 ft | 520 kts | 143° |
| 2026-05-08 05:37 | 31.24955 | -83.62339 | 39922 ft | 521 kts | 142° |
| 2026-05-08 05:38 | 31.23260 | -83.60364 | 39671 ft | 521 kts | 142° |
| 2026-05-08 05:38 | 31.19822 | -83.56363 | 39171 ft | 521 kts | 143° |
| 2026-05-08 05:38 | 31.17250 | -83.53379 | 38811 ft | 522 kts | 143° |
| 2026-05-08 05:38 | 31.14675 | -83.50392 | 38405 ft | 522 kts | 143° |
| 2026-05-08 05:39 | 31.12966 | -83.48408 | 38125 ft | 522 kts | 143° |
| 2026-05-08 05:39 | 31.10391 | -83.45425 | 37700 ft | 522 kts | 143° |
| 2026-05-08 05:39 | 31.06946 | -83.41433 | 37119 ft | 521 kts | 142° |
| 2026-05-08 05:39 | 31.05243 | -83.39461 | 36856 ft | 520 kts | 143° |
| 2026-05-08 05:40 | 31.02682 | -83.36501 | 36466 ft | 518 kts | 143° |
| 2026-05-08 05:40 | 30.99261 | -83.32551 | 35952 ft | 516 kts | 143° |
| 2026-05-08 05:40 | 30.96714 | -83.29611 | 35574 ft | 514 kts | 143° |
| 2026-05-08 05:40 | 30.94177 | -83.26684 | 35200 ft | 513 kts | 143° |
| 2026-05-08 05:41 | 30.92501 | -83.24751 | 34934 ft | 511 kts | 143° |
| 2026-05-08 05:41 | 30.89974 | -83.21842 | 34568 ft | 510 kts | 143° |
| 2026-05-08 05:41 | 30.87455 | -83.18944 | 34205 ft | 508 kts | 143° |
| 2026-05-08 05:41 | 30.84949 | -83.16061 | 33825 ft | 506 kts | 143° |
| 2026-05-08 05:42 | 30.82449 | -83.13188 | 33410 ft | 504 kts | 143° |
| 2026-05-08 05:42 | 30.79950 | -83.10319 | 33004 ft | 503 kts | 143° |
| 2026-05-08 05:42 | 30.76551 | -83.06708 | 32451 ft | 499 kts | 146° |
| 2026-05-08 05:42 | 30.74787 | -83.04908 | 32188 ft | 498 kts | 146° |
| 2026-05-08 05:43 | 30.71344 | -83.01385 | 31675 ft | 498 kts | 146° |
| 2026-05-08 05:43 | 30.69630 | -82.99608 | 31422 ft | 498 kts | 146° |
| 2026-05-08 05:43 | 30.67044 | -82.96927 | 31045 ft | 497 kts | 146° |
| 2026-05-08 05:43 | 30.64461 | -82.94270 | 30672 ft | 496 kts | 146° |
| 2026-05-08 05:44 | 30.61874 | -82.91623 | 30301 ft | 496 kts | 146° |
| 2026-05-08 05:44 | 30.58450 | -82.88103 | 29774 ft | 495 kts | 146° |
| 2026-05-08 05:44 | 30.56710 | -82.86312 | 29484 ft | 495 kts | 146° |
| 2026-05-08 05:44 | 30.54136 | -82.83669 | 29070 ft | 493 kts | 146° |
| 2026-05-08 05:45 | 30.51573 | -82.81045 | 28805 ft | 491 kts | 146° |
| 2026-05-08 05:45 | 30.49007 | -82.78419 | 28546 ft | 492 kts | 146° |
| 2026-05-08 05:45 | 30.46445 | -82.75795 | 28290 ft | 492 kts | 145° |
| 2026-05-08 05:45 | 30.43878 | -82.73165 | 28035 ft | 491 kts | 145° |
| 2026-05-08 05:46 | 30.41314 | -82.70544 | 27789 ft | 491 kts | 145° |
| 2026-05-08 05:46 | 30.38756 | -82.67934 | 27541 ft | 491 kts | 145° |
| 2026-05-08 05:46 | 30.36232 | -82.65357 | 27298 ft | 490 kts | 145° |
| 2026-05-08 05:46 | 30.33676 | -82.62750 | 27053 ft | 489 kts | 145° |
| 2026-05-08 05:47 | 30.31123 | -82.60147 | 26807 ft | 489 kts | 145° |
| 2026-05-08 05:47 | 30.28574 | -82.57552 | 26575 ft | 488 kts | 145° |
| 2026-05-08 05:47 | 30.26027 | -82.54959 | 26333 ft | 487 kts | 145° |
| 2026-05-08 05:47 | 30.23483 | -82.52372 | 26096 ft | 486 kts | 145° |
| 2026-05-08 05:48 | 30.20944 | -82.49791 | 25860 ft | 485 kts | 145° |
| 2026-05-08 05:48 | 30.18411 | -82.47219 | 25627 ft | 484 kts | 145° |
| 2026-05-08 05:48 | 30.15884 | -82.44655 | 25372 ft | 483 kts | 145° |
| 2026-05-08 05:48 | 30.13255 | -82.42296 | 25119 ft | 474 kts | 153° |
| 2026-05-08 05:49 | 30.10394 | -82.40472 | 24844 ft | 465 kts | 163° |
| 2026-05-08 05:49 | 30.07378 | -82.39230 | 24566 ft | 455 kts | 172° |
| 2026-05-08 05:49 | 30.04311 | -82.38427 | 24310 ft | 451 kts | 175° |
| 2026-05-08 05:49 | 30.01244 | -82.37634 | 24046 ft | 452 kts | 174° |
| 2026-05-08 05:50 | 29.98191 | -82.36765 | 23791 ft | 452 kts | 173° |
| 2026-05-08 05:50 | 29.95141 | -82.35886 | 23527 ft | 451 kts | 174° |
| 2026-05-08 05:50 | 29.92090 | -82.35052 | 23214 ft | 450 kts | 174° |
| 2026-05-08 05:50 | 29.89044 | -82.34231 | 22888 ft | 449 kts | 174° |
| 2026-05-08 05:51 | 29.86004 | -82.33387 | 22588 ft | 449 kts | 173° |
| 2026-05-08 05:51 | 29.82970 | -82.32532 | 22288 ft | 448 kts | 173° |
| 2026-05-08 05:51 | 29.79939 | -82.31709 | 21989 ft | 447 kts | 174° |
| 2026-05-08 05:51 | 29.76954 | -82.30921 | 21699 ft | 445 kts | 175° |
| 2026-05-08 05:52 | 29.73926 | -82.30182 | 21404 ft | 445 kts | 175° |
| 2026-05-08 05:52 | 29.70901 | -82.29417 | 21110 ft | 444 kts | 174° |
| 2026-05-08 05:52 | 29.67889 | -82.28665 | 20823 ft | 443 kts | 175° |
| 2026-05-08 05:52 | 29.64872 | -82.27930 | 20537 ft | 442 kts | 175° |
| 2026-05-08 05:53 | 29.61868 | -82.27196 | 20255 ft | 442 kts | 175° |
| 2026-05-08 05:53 | 29.58859 | -82.26453 | 19953 ft | 441 kts | 174° |
| 2026-05-08 05:53 | 29.55859 | -82.25712 | 19667 ft | 441 kts | 174° |
| 2026-05-08 05:53 | 29.52864 | -82.24976 | 19364 ft | 440 kts | 174° |
| 2026-05-08 05:54 | 29.49875 | -82.24243 | 19090 ft | 439 kts | 174° |
| 2026-05-08 05:54 | 29.46926 | -82.23520 | 18832 ft | 438 kts | 174° |
| 2026-05-08 05:54 | 29.43942 | -82.22787 | 18567 ft | 438 kts | 174° |
| 2026-05-08 05:54 | 29.40965 | -82.22058 | 18301 ft | 437 kts | 174° |
| 2026-05-08 05:55 | 29.37986 | -82.21328 | 17998 ft | 437 kts | 174° |
| 2026-05-08 05:55 | 29.35049 | -82.20609 | 17691 ft | 436 kts | 174° |
| 2026-05-08 05:55 | 29.32084 | -82.19883 | 17395 ft | 435 kts | 174° |
| 2026-05-08 05:55 | 29.29131 | -82.19093 | 17079 ft | 438 kts | 169° |
| 2026-05-08 05:56 | 29.26263 | -82.17863 | 16777 ft | 441 kts | 162° |
| 2026-05-08 05:56 | 29.23450 | -82.16460 | 16475 ft | 441 kts | 161° |
| 2026-05-08 05:56 | 29.20644 | -82.15075 | 16185 ft | 439 kts | 162° |
| 2026-05-08 05:56 | 29.17815 | -82.13758 | 15898 ft | 437 kts | 163° |
| 2026-05-08 05:57 | 29.14996 | -82.12449 | 15609 ft | 437 kts | 162° |
| 2026-05-08 05:57 | 29.12199 | -82.11108 | 15326 ft | 436 kts | 162° |
| 2026-05-08 05:57 | 29.09402 | -82.09761 | 15043 ft | 435 kts | 162° |
| 2026-05-08 05:57 | 29.06612 | -82.08442 | 14763 ft | 434 kts | 162° |
| 2026-05-08 05:58 | 29.03825 | -82.07132 | 14458 ft | 433 kts | 162° |
| 2026-05-08 05:58 | 29.01044 | -82.05790 | 14131 ft | 434 kts | 159° |
| 2026-05-08 05:58 | 28.98416 | -82.04066 | 13800 ft | 438 kts | 149° |
| 2026-05-08 05:58 | 28.96059 | -82.01824 | 13434 ft | 442 kts | 139° |
| 2026-05-08 05:59 | 28.93948 | -81.99270 | 13075 ft | 442 kts | 135° |
| 2026-05-08 05:59 | 28.91910 | -81.96646 | 12726 ft | 441 kts | 135° |
| 2026-05-08 05:59 | 28.89789 | -81.94139 | 12380 ft | 438 kts | 138° |
| 2026-05-08 05:59 | 28.87602 | -81.91726 | 12040 ft | 436 kts | 139° |
| 2026-05-08 06:00 | 28.85348 | -81.89413 | 11704 ft | 435 kts | 141° |
| 2026-05-08 06:00 | 28.83065 | -81.87157 | 11371 ft | 434 kts | 141° |
| 2026-05-08 06:00 | 28.80792 | -81.84888 | 11055 ft | 433 kts | 141° |
| 2026-05-08 06:00 | 28.78548 | -81.82601 | 10728 ft | 432 kts | 140° |
| 2026-05-08 06:01 | 28.76314 | -81.80318 | 10408 ft | 431 kts | 140° |
| 2026-05-08 06:01 | 28.74114 | -81.78099 | 10085 ft | 430 kts | 140° |
| 2026-05-08 06:01 | 28.71741 | -81.76033 | 9739 ft | 427 kts | 149° |
| 2026-05-08 06:01 | 28.69123 | -81.74484 | 9367 ft | 424 kts | 158° |
| 2026-05-08 06:02 | 28.66431 | -81.73309 | 8919 ft | 405 kts | 162° |
| 2026-05-08 06:02 | 28.63885 | -81.72261 | 8452 ft | 375 kts | 161° |
| 2026-05-08 06:02 | 28.61558 | -81.71108 | 7971 ft | 356 kts | 155° |
| 2026-05-08 06:02 | 28.59419 | -81.69808 | 7484 ft | 342 kts | 153° |
| 2026-05-08 06:03 | 28.57339 | -81.68591 | 7004 ft | 331 kts | 155° |
| 2026-05-08 06:03 | 28.55271 | -81.67497 | 6526 ft | 324 kts | 156° |
| 2026-05-08 06:03 | 28.53242 | -81.66416 | 6035 ft | 319 kts | 155° |
| 2026-05-08 06:03 | 28.51259 | -81.65318 | 5546 ft | 315 kts | 155° |
| 2026-05-08 06:04 | 28.49304 | -81.64231 | 5063 ft | 311 kts | 155° |
| 2026-05-08 06:04 | 28.47366 | -81.63163 | 4576 ft | 308 kts | 155° |
| 2026-05-08 06:04 | 28.45443 | -81.62117 | 4083 ft | 306 kts | 156° |
| 2026-05-08 06:04 | 28.43536 | -81.61071 | 3697 ft | 301 kts | 155° |
| 2026-05-08 06:05 | 28.41679 | -81.60047 | 3476 ft | 293 kts | 156° |
| 2026-05-08 06:05 | 28.39858 | -81.59054 | 3254 ft | 287 kts | 155° |
| 2026-05-08 06:05 | 28.38072 | -81.58077 | 3026 ft | 283 kts | 155° |
| 2026-05-08 06:05 | 28.36332 | -81.57122 | 2803 ft | 280 kts | 155° |
| 2026-05-08 06:06 | 28.34566 | -81.56195 | 2589 ft | 279 kts | 161° |
| 2026-05-08 06:06 | 28.32690 | -81.55697 | 2357 ft | 276 kts | 175° |
| 2026-05-08 06:06 | 28.30779 | -81.55541 | 2138 ft | 275 kts | 180° |
| 2026-05-08 06:06 | 28.28871 | -81.55369 | 1916 ft | 276 kts | 175° |
| 2026-05-08 06:07 | 28.26990 | -81.55028 | 1885 ft | 269 kts | 173° |
| 2026-05-08 06:07 | 28.25167 | -81.54668 | 1872 ft | 263 kts | 172° |
| 2026-05-08 06:07 | 28.23435 | -81.54059 | 1857 ft | 261 kts | 156° |
| 2026-05-08 06:07 | 28.21927 | -81.52931 | 1847 ft | 260 kts | 140° |
| 2026-05-08 06:08 | 28.20596 | -81.51559 | 1841 ft | 258 kts | 140° |
| 2026-05-08 06:08 | 28.19166 | -81.50341 | 1832 ft | 256 kts | 148° |
| 2026-05-08 06:08 | 28.17664 | -81.49269 | 1825 ft | 254 kts | 149° |
| 2026-05-08 06:08 | 28.16183 | -81.48189 | 1821 ft | 253 kts | 147° |
| 2026-05-08 06:09 | 28.14728 | -81.47070 | 1817 ft | 252 kts | 147° |
| 2026-05-08 06:09 | 28.13285 | -81.45964 | 1814 ft | 251 kts | 147° |
| 2026-05-08 06:09 | 28.11833 | -81.44866 | 1799 ft | 250 kts | 147° |
| 2026-05-08 06:09 | 28.10411 | -81.43732 | 1794 ft | 250 kts | 141° |
| 2026-05-08 06:10 | 28.09270 | -81.42251 | 1780 ft | 250 kts | 122° |
| 2026-05-08 06:10 | 28.08581 | -81.40453 | 1774 ft | 249 kts | 104° |
| 2026-05-08 06:10 | 28.08400 | -81.38520 | 1767 ft | 247 kts | 85° |
| 2026-05-08 06:10 | 28.08735 | -81.36635 | 1762 ft | 243 kts | 67° |
| 2026-05-08 06:11 | 28.09535 | -81.35000 | 1760 ft | 240 kts | 50° |
| 2026-05-08 06:11 | 28.10728 | -81.33734 | 1759 ft | 233 kts | 31° |
| 2026-05-08 06:11 | 28.12182 | -81.32977 | 1754 ft | 219 kts | 11° |
| 2026-05-08 06:11 | 28.13612 | -81.32828 | 1751 ft | 202 kts | 352° |
| 2026-05-08 06:12 | 28.14894 | -81.33298 | 1737 ft | 190 kts | 330° |
| 2026-05-08 06:12 | 28.16024 | -81.34024 | 1718 ft | 183 kts | 324° |
| 2026-05-08 06:12 | 28.16992 | -81.34930 | 1700 ft | 178 kts | 313° |
| 2026-05-08 06:12 | 28.17888 | -81.35876 | 1690 ft | 175 kts | 321° |
| 2026-05-08 06:13 | 28.18896 | -81.36637 | 1677 ft | 173 kts | 326° |
| 2026-05-08 06:13 | 28.19924 | -81.37351 | 1667 ft | 172 kts | 327° |
| 2026-05-08 06:13 | 28.20939 | -81.38060 | 1657 ft | 170 kts | 326° |
| 2026-05-08 06:13 | 28.21957 | -81.38776 | 1491 ft | 175 kts | 326° |
| 2026-05-08 06:14 | 28.23013 | -81.39518 | 1272 ft | 176 kts | 326° |
| 2026-05-08 06:14 | 28.24000 | -81.40208 | 1050 ft | 158 kts | 326° |
| 2026-05-08 06:14 | 28.24896 | -81.40842 | 854 ft | 147 kts | 326° |
| 2026-05-08 06:14 | 28.25700 | -81.41421 | 603 ft | 130 kts | 324° |
| 2026-05-08 06:15 | 28.26440 | -81.41956 | 453 ft | 127 kts | 327° |
| 2026-05-08 06:15 | 28.27175 | -81.42453 | 366 ft | 118 kts | 322° |
| 2026-05-08 06:15 | 28.27878 | -81.42943 | 215 ft | 120 kts | 326° |
| 2026-05-08 06:15 | 28.28567 | -81.43429 | 89 ft | 106 kts | 328° |
| 2026-05-08 06:16 | 28.28923 | -81.43678 | 93 ft | 40 kts | 327° |
| 2026-05-08 06:16 | 28.29110 | -81.43808 | 94 ft | 20 kts | 327° |
| 2026-05-08 06:16 | 28.29094 | -81.43898 | 93 ft | 0 kts | 239° |
| 2026-05-08 06:17 | 28.29093 | -81.43900 | 93 ft | 5 kts | 239° |
| 2026-05-08 06:17 | 28.29158 | -81.43991 | 90 ft | 19 kts | 312° |
| 2026-05-08 06:17 | 28.29101 | -81.44042 | 90 ft | 15 kts | 160° |
| 2026-05-08 06:18 | 28.29095 | -81.44025 | 91 ft | 0 kts | 72° |